createdAt,value
2019-03-08T00:00:11.104Z,70.40
2019-03-08T00:02:51.214Z,70.40
2019-03-08T00:05:31.393Z,70.40
2019-03-08T00:08:11.442Z,70.50
2019-03-08T00:10:51.497Z,70.30
2019-03-08T00:13:31.311Z,70.30
2019-03-08T00:16:12.011Z,70.40
2019-03-08T00:18:52.202Z,70.50
2019-03-08T00:21:32.828Z,70.50
2019-03-08T00:24:12.787Z,70.40
2019-03-08T00:26:52.724Z,70.50
2019-03-08T00:29:32.590Z,70.60
2019-03-08T00:32:12.628Z,70.60
2019-03-08T00:34:52.460Z,71.00
2019-03-08T00:37:32.596Z,71.50
2019-03-08T00:40:12.690Z,71.80
2019-03-08T00:42:52.457Z,71.90
2019-03-08T00:45:32.510Z,72.10
2019-03-08T00:48:12.334Z,72.30
2019-03-08T00:50:52.536Z,72.30
2019-03-08T00:53:32.574Z,72.40
2019-03-08T00:56:12.287Z,72.60
2019-03-08T00:58:52.427Z,72.80
2019-03-08T01:01:32.572Z,72.90
2019-03-08T01:04:12.429Z,73.10
2019-03-08T01:06:52.595Z,73.30
2019-03-08T01:09:32.558Z,73.40
2019-03-08T01:12:12.580Z,73.50
2019-03-08T01:14:52.503Z,73.60
2019-03-08T01:17:32.551Z,73.80
2019-03-08T01:20:12.773Z,74.00
2019-03-08T01:22:52.893Z,74.10
2019-03-08T01:25:32.808Z,74.20
2019-03-08T01:28:12.920Z,74.40
2019-03-08T01:30:52.945Z,74.60
2019-03-08T01:33:33.089Z,74.80
2019-03-08T01:36:13.104Z,75.00
2019-03-08T01:38:53.001Z,75.30
2019-03-08T01:41:32.846Z,75.60
2019-03-08T01:44:12.893Z,75.80
2019-03-08T01:46:52.957Z,76.00
2019-03-08T01:49:33.069Z,76.10
2019-03-08T01:52:13.073Z,76.20
2019-03-08T01:54:53.271Z,76.50
2019-03-08T01:57:33.082Z,76.60
2019-03-08T02:00:13.201Z,76.80
2019-03-08T02:02:53.106Z,77.10
2019-03-08T02:05:32.948Z,77.50
2019-03-08T02:08:13.863Z,77.50
2019-03-08T02:10:54.143Z,78.10
2019-03-08T02:13:34.079Z,78.30
2019-03-08T02:16:14.330Z,78.70
2019-03-08T02:18:54.356Z,79.00
2019-03-08T02:21:34.666Z,79.20
2019-03-08T02:24:14.325Z,79.30
2019-03-08T02:26:54.467Z,79.70
2019-03-08T02:29:34.593Z,80.00
2019-03-08T02:32:14.443Z,80.50
2019-03-08T02:34:55.717Z,81.20
2019-03-08T02:37:35.755Z,81.50
2019-03-08T02:40:15.952Z,81.70
2019-03-08T02:42:56.050Z,81.80
2019-03-08T02:45:36.019Z,81.90
2019-03-08T02:48:15.877Z,82.10
2019-03-08T02:50:55.701Z,82.40
2019-03-08T02:53:35.758Z,82.80
2019-03-08T02:56:15.790Z,83.40
2019-03-08T02:58:55.785Z,84.30
2019-03-08T03:01:35.808Z,85.30
2019-03-08T03:04:15.619Z,86.30
2019-03-08T03:06:55.623Z,86.70
2019-03-08T03:09:35.791Z,86.90
2019-03-08T03:12:15.914Z,87.20
2019-03-08T03:14:55.989Z,87.60
2019-03-08T03:17:35.914Z,88.20
2019-03-08T03:20:15.979Z,88.40
2019-03-08T03:22:56.174Z,88.70
2019-03-08T03:25:36.069Z,89.00
2019-03-08T03:28:16.093Z,89.10
2019-03-08T03:30:56.218Z,89.00
2019-03-08T03:33:36.239Z,89.10
2019-03-08T03:36:16.297Z,89.20
2019-03-08T03:38:56.269Z,88.90
2019-03-08T03:41:36.371Z,88.80
2019-03-08T03:44:16.355Z,89.00
2019-03-08T03:46:56.393Z,89.10
2019-03-08T03:49:36.353Z,89.10
2019-03-08T03:52:16.345Z,88.80
2019-03-08T03:54:56.570Z,88.80
2019-03-08T03:57:36.821Z,88.70
2019-03-08T04:00:16.729Z,88.60
2019-03-08T04:02:56.771Z,88.50
2019-03-08T04:05:24.111Z,88.60
2019-03-08T04:08:10.841Z,88.60
2019-03-08T04:10:57.561Z,89.10
2019-03-08T04:13:44.369Z,89.90
2019-03-08T04:16:31.437Z,90.50
2019-03-08T04:19:18.921Z,91.00
2019-03-08T04:22:05.666Z,91.50
2019-03-08T04:24:52.581Z,91.90
2019-03-08T04:27:39.421Z,92.20
2019-03-08T04:30:26.240Z,92.20
2019-03-08T04:33:13.082Z,92.40
2019-03-08T04:35:59.931Z,92.70
2019-03-08T04:38:46.761Z,93.10
2019-03-08T04:41:33.920Z,93.40
2019-03-08T04:44:42.521Z,93.80
2019-03-08T04:47:29.379Z,93.90
2019-03-08T04:50:16.209Z,94.20
2019-03-08T04:53:03.139Z,94.40
2019-03-08T04:56:11.743Z,94.70
2019-03-08T04:58:58.562Z,94.80
2019-03-08T05:01:45.300Z,94.90
2019-03-08T05:04:32.130Z,95.00
2019-03-08T05:07:18.978Z,95.10
2019-03-08T05:10:06.611Z,95.40
2019-03-08T05:12:53.343Z,95.50
2019-03-08T05:15:40.077Z,95.60
2019-03-08T05:18:26.967Z,95.70
2019-03-08T05:21:13.825Z,95.80
2019-03-08T05:24:00.709Z,95.90
2019-03-08T05:29:54.261Z,95.80
2019-03-08T05:32:41.109Z,95.80
2019-03-08T05:35:27.986Z,95.90
2019-03-08T05:38:14.829Z,95.80
2019-03-08T05:41:01.695Z,95.80
2019-03-08T05:43:48.852Z,95.90
2019-03-08T05:46:55.697Z,96.00
2019-03-08T05:49:42.421Z,96.00
2019-03-08T05:52:29.269Z,96.10
2019-03-08T05:55:37.870Z,96.10
2019-03-08T05:58:24.700Z,96.10
2019-03-08T06:01:11.533Z,96.20
2019-03-08T06:03:51.385Z,96.30
2019-03-08T06:06:32.972Z,96.40
2019-03-08T06:09:12.632Z,96.60
2019-03-08T06:11:52.897Z,96.70
2019-03-08T06:14:32.901Z,96.60
2019-03-08T06:17:13.022Z,96.70
2019-03-08T06:19:53.133Z,97.00
2019-03-08T06:22:33.131Z,96.70
2019-03-08T06:25:13.345Z,96.70
2019-03-08T06:27:53.110Z,96.70
2019-03-08T06:30:33.101Z,96.60
2019-03-08T06:33:13.090Z,96.60
2019-03-08T06:35:53.217Z,96.60
2019-03-08T06:38:33.113Z,96.60
2019-03-08T06:41:13.053Z,96.70
2019-03-08T06:43:53.173Z,96.80
2019-03-08T06:46:33.303Z,96.80
2019-03-08T06:49:13.241Z,96.80
2019-03-08T06:51:53.357Z,96.80
2019-03-08T06:54:33.373Z,96.80
2019-03-08T06:57:13.517Z,96.80
2019-03-08T06:59:58.076Z,96.80
2019-03-08T07:02:38.453Z,96.80
2019-03-08T07:05:18.885Z,96.70
2019-03-08T07:07:58.850Z,96.70
2019-03-08T07:10:39.093Z,96.70
2019-03-08T07:13:19.161Z,97.00
2019-03-08T07:15:59.126Z,96.60
2019-03-08T07:18:39.253Z,96.50
2019-03-08T07:21:24.371Z,96.40
2019-03-08T07:24:23.727Z,96.40
2019-03-08T07:27:34.874Z,96.20
2019-03-08T07:30:43.544Z,96.20
2019-03-08T07:33:30.376Z,96.10
2019-03-08T07:36:36.710Z,96.00
2019-03-08T07:39:43.038Z,95.90
2019-03-08T07:42:38.016Z,95.90
2019-03-08T07:45:44.420Z,95.70
2019-03-08T07:48:31.350Z,95.60
2019-03-08T07:51:38.474Z,95.50
2019-03-08T07:54:33.988Z,95.30
2019-03-08T07:57:37.113Z,95.20
2019-03-08T08:00:43.427Z,95.10
2019-03-08T08:03:42.836Z,94.80
2019-03-08T08:06:41.952Z,94.50
2019-03-08T08:09:43.924Z,94.30
2019-03-08T08:12:43.200Z,93.90
2019-03-08T08:15:39.569Z,93.70
2019-03-08T08:18:39.630Z,93.30
2019-03-08T08:21:38.577Z,92.90
2019-03-08T08:24:43.713Z,92.70
2019-03-08T08:28:04.800Z,92.50
2019-03-08T08:31:04.071Z,92.20
2019-03-08T08:37:02.406Z,91.60
2019-03-08T08:40:01.530Z,91.50
2019-03-08T08:43:00.688Z,91.40
2019-03-08T08:45:49.502Z,91.10
2019-03-08T08:48:36.470Z,90.90
2019-03-08T08:51:35.438Z,90.80
2019-03-08T08:54:34.494Z,90.70
2019-03-08T08:57:33.460Z,90.40
2019-03-08T09:00:32.838Z,90.20
2019-03-08T09:03:32.080Z,89.80
2019-03-08T09:06:31.286Z,89.50
2019-03-08T09:09:33.016Z,89.20
2019-03-08T09:12:22.661Z,88.80
2019-03-08T09:15:25.303Z,87.80
2019-03-08T09:18:14.594Z,87.30
2019-03-08T09:21:14.606Z,86.80
2019-03-08T09:24:16.746Z,86.60
2019-03-08T09:27:16.142Z,87.10
2019-03-08T09:30:05.874Z,86.80
2019-03-08T09:33:05.383Z,85.90
2019-03-08T09:36:04.381Z,86.10
2019-03-08T09:39:10.717Z,85.00
2019-03-08T09:45:36.863Z,84.50
2019-03-08T09:48:48.559Z,85.10
2019-03-08T09:52:11.401Z,85.30
2019-03-08T09:55:17.823Z,85.00
2019-03-08T09:58:24.805Z,83.80
2019-03-08T10:01:31.115Z,81.70
2019-03-08T10:04:17.466Z,79.20
2019-03-08T10:07:17.191Z,78.40
2019-03-08T10:10:07.281Z,74.00
2019-03-08T10:12:56.327Z,67.90
2019-03-08T10:15:39.871Z,64.80
2019-03-08T10:18:28.196Z,61.00
2019-03-08T10:21:27.261Z,55.90
2019-03-08T10:24:26.557Z,49.80
2019-03-08T10:27:25.493Z,47.90
2019-03-08T10:30:24.731Z,45.10
2019-03-08T10:33:16.625Z,44.70
2019-03-08T10:36:15.911Z,47.20
2019-03-08T10:39:15.065Z,49.50
2019-03-08T10:42:14.370Z,52.10
2019-03-08T10:45:19.721Z,54.00
2019-03-08T10:48:40.952Z,54.60
2019-03-08T10:51:42.707Z,54.60
2019-03-08T10:54:42.030Z,55.10
2019-03-08T10:57:41.224Z,52.60
2019-03-08T11:00:24.854Z,50.20
2019-03-08T11:03:16.682Z,49.30
2019-03-08T11:06:18.920Z,47.90
2019-03-08T11:09:11.360Z,48.10
2019-03-08T11:12:11.136Z,49.10
2019-03-08T11:15:10.159Z,49.40
2019-03-08T11:18:05.236Z,49.70
2019-03-08T11:20:55.560Z,46.90
2019-03-08T11:23:57.821Z,45.50
2019-03-08T11:27:04.781Z,46.80
2019-03-08T11:29:58.365Z,48.50
2019-03-08T11:32:42.029Z,50.30
2019-03-08T11:35:41.521Z,52.10
2019-03-08T11:38:40.687Z,53.70
2019-03-08T11:41:25.289Z,54.90
2019-03-08T11:44:31.005Z,56.20
2019-03-08T11:47:30.065Z,57.70
2019-03-08T11:50:29.089Z,59.00
2019-03-08T11:53:28.457Z,60.20
2019-03-08T11:56:27.798Z,62.20
2019-03-08T11:59:17.159Z,63.70
2019-03-08T12:02:16.839Z,66.30
2019-03-08T12:05:19.010Z,69.60
2019-03-08T12:08:11.561Z,71.20
2019-03-08T12:11:17.379Z,70.10
2019-03-08T12:14:16.343Z,68.90
2019-03-08T12:17:15.434Z,69.20
2019-03-08T12:20:14.810Z,70.20
2019-03-08T12:23:14.021Z,71.30
2019-03-08T12:26:13.908Z,71.70
2019-03-08T12:29:13.061Z,72.30
2019-03-08T12:32:03.974Z,73.00
2019-03-08T12:35:29.878Z,73.20
2019-03-08T12:38:36.317Z,73.20
2019-03-08T12:41:44.977Z,72.90
2019-03-08T12:44:51.400Z,72.40
2019-03-08T12:48:23.648Z,72.20
2019-03-08T12:51:16.371Z,71.90
2019-03-08T12:54:22.704Z,71.20
2019-03-08T12:57:29.048Z,71.50
2019-03-08T13:00:25.581Z,72.00
2019-03-08T13:03:31.993Z,71.70
2019-03-08T13:06:31.372Z,71.60
2019-03-08T13:09:36.295Z,71.10
2019-03-08T13:12:16.146Z,70.40
2019-03-08T13:14:56.089Z,69.30
2019-03-08T13:17:36.060Z,68.80
2019-03-08T13:20:16.029Z,68.30
2019-03-08T13:22:56.280Z,67.80
2019-03-08T13:25:36.334Z,67.00
2019-03-08T13:28:16.527Z,66.70
2019-03-08T13:30:56.426Z,65.90
2019-03-08T13:33:36.374Z,64.90
2019-03-08T13:36:16.411Z,64.10
2019-03-08T13:38:58.097Z,63.10
2019-03-08T13:41:38.169Z,62.10
2019-03-08T13:44:18.171Z,60.90
2019-03-08T13:46:58.282Z,58.30
2019-03-08T13:49:37.895Z,57.10
2019-03-08T13:52:17.776Z,55.40
2019-03-08T13:54:57.698Z,53.90
2019-03-08T13:57:37.566Z,53.00
2019-03-08T14:00:17.655Z,53.00
2019-03-08T14:02:57.605Z,52.80
2019-03-08T14:05:37.893Z,52.60
2019-03-08T14:08:18.061Z,52.40
2019-03-08T14:10:58.177Z,52.30
2019-03-08T14:13:38.053Z,52.00
2019-03-08T14:16:18.013Z,52.00
2019-03-08T14:18:58.192Z,51.90
2019-03-08T14:21:38.074Z,52.40
2019-03-08T14:24:18.065Z,52.70
2019-03-08T14:26:58.268Z,52.60
2019-03-08T14:29:38.133Z,52.60
2019-03-08T14:32:21.113Z,52.90
2019-03-08T14:35:01.020Z,52.90
2019-03-08T14:37:40.952Z,52.90
2019-03-08T14:40:40.523Z,53.00
2019-03-08T14:43:27.410Z,53.40
2019-03-08T14:46:33.766Z,53.60
2019-03-08T14:49:22.762Z,53.10
2019-03-08T14:52:29.197Z,53.00
2019-03-08T14:55:18.965Z,53.00
2019-03-08T14:58:24.763Z,53.30
2019-03-08T15:01:11.706Z,53.30
2019-03-08T15:03:58.572Z,53.50
2019-03-08T15:06:38.635Z,53.40
2019-03-08T15:09:18.584Z,52.80
2019-03-08T15:11:59.494Z,52.40
2019-03-08T15:14:40.714Z,52.00
2019-03-08T15:17:20.880Z,51.50
2019-03-08T15:20:01.052Z,51.20
2019-03-08T15:22:41.073Z,51.10
2019-03-08T15:25:21.087Z,51.00
2019-03-08T15:28:01.093Z,51.10
2019-03-08T15:30:41.193Z,51.00
2019-03-08T15:33:08.487Z,50.90
2019-03-08T15:35:55.301Z,50.70
2019-03-08T15:38:42.128Z,50.70
2019-03-08T15:41:28.941Z,51.10
2019-03-08T15:44:15.817Z,51.20
2019-03-08T15:47:02.653Z,51.40
2019-03-08T15:49:49.473Z,51.80
2019-03-08T15:52:58.020Z,52.20
2019-03-08T15:55:52.463Z,52.60
2019-03-08T15:58:53.493Z,52.80
2019-03-08T16:02:06.081Z,53.10
2019-03-08T16:05:10.902Z,53.50
2019-03-08T16:07:50.956Z,53.70
2019-03-08T16:10:31.365Z,53.90
2019-03-08T16:13:11.060Z,54.20
2019-03-08T16:15:51.232Z,54.30
2019-03-08T16:18:31.385Z,54.70
2019-03-08T16:21:13.066Z,55.10
2019-03-08T16:23:53.539Z,55.40
2019-03-08T16:26:33.410Z,55.60
2019-03-08T16:29:13.587Z,55.80
2019-03-08T16:32:00.044Z,56.30
2019-03-08T16:34:39.806Z,56.50
2019-03-08T16:37:24.775Z,56.50
2019-03-08T16:40:24.473Z,56.80
2019-03-08T16:43:31.800Z,57.10
2019-03-08T16:46:31.726Z,57.40
2019-03-08T16:49:31.869Z,57.60
2019-03-08T16:52:23.268Z,57.90
2019-03-08T16:55:49.761Z,58.30
2019-03-08T16:59:03.432Z,58.60
2019-03-08T17:01:52.205Z,58.80
2019-03-08T17:04:53.911Z,59.30
2019-03-08T17:07:45.783Z,60.00
2019-03-08T17:10:45.089Z,62.10
2019-03-08T17:13:44.445Z,64.90
2019-03-08T17:16:43.671Z,67.30
2019-03-08T17:19:33.354Z,69.10
2019-03-08T17:22:33.149Z,70.80
2019-03-08T17:25:32.360Z,72.50
2019-03-08T17:28:31.530Z,73.40
2019-03-08T17:31:18.433Z,74.40
2019-03-08T17:34:18.261Z,75.50
2019-03-08T17:37:17.323Z,75.80
2019-03-08T17:40:06.225Z,76.50
2019-03-08T17:42:58.454Z,76.50
2019-03-08T17:45:57.743Z,76.50
2019-03-08T17:48:59.987Z,76.90
2019-03-08T17:51:59.245Z,77.40
2019-03-08T17:54:46.524Z,77.70
2019-03-08T17:57:46.269Z,78.00
2019-03-08T18:01:07.597Z,78.40
2019-03-08T18:04:06.899Z,78.70
2019-03-08T18:06:58.790Z,79.00
2019-03-08T18:09:53.590Z,79.00
2019-03-08T18:12:51.426Z,79.40
2019-03-08T18:15:38.644Z,79.60
2019-03-08T18:18:38.266Z,79.90
2019-03-08T18:21:28.883Z,79.70
2019-03-08T18:24:28.718Z,80.00
2019-03-08T18:27:27.851Z,80.10
2019-03-08T18:30:27.254Z,80.10
2019-03-08T18:33:29.390Z,80.50
2019-03-08T18:36:32.226Z,80.80
2019-03-08T18:40:01.805Z,80.70
2019-03-08T18:43:01.400Z,80.90
2019-03-08T18:45:54.454Z,81.20
2019-03-08T18:48:48.450Z,81.60
2019-03-08T18:51:47.487Z,81.80
2019-03-08T18:54:46.686Z,81.90
2019-03-08T18:57:35.694Z,82.00
2019-03-08T19:00:35.214Z,82.00
2019-03-08T19:03:40.456Z,82.20
2019-03-08T19:06:32.794Z,82.40
2019-03-08T19:09:24.228Z,82.80
2019-03-08T19:12:26.724Z,82.80
2019-03-08T19:15:25.928Z,82.70
2019-03-08T19:18:21.086Z,83.00
2019-03-08T19:21:27.462Z,83.20
2019-03-08T19:24:21.230Z,83.20
2019-03-08T19:27:27.578Z,83.40
2019-03-08T19:30:34.355Z,83.40
2019-03-08T19:33:41.106Z,83.50
2019-03-08T19:36:47.423Z,83.50
2019-03-08T19:39:53.762Z,83.40
2019-03-08T19:43:00.112Z,83.30
2019-03-08T19:45:55.200Z,83.40
2019-03-08T19:48:54.684Z,83.50
2019-03-08T19:52:01.031Z,83.70
2019-03-08T19:54:52.905Z,83.90
2019-03-08T19:57:59.224Z,84.10
2019-03-08T20:01:05.578Z,84.40
2019-03-08T20:04:11.945Z,84.50
2019-03-08T20:07:18.306Z,84.70
2019-03-08T20:10:09.374Z,84.90
2019-03-08T20:13:08.375Z,84.90
2019-03-08T20:16:01.619Z,85.00
2019-03-08T20:19:03.710Z,84.80
2019-03-08T20:21:48.656Z,85.00
2019-03-08T20:24:47.910Z,84.70
2019-03-08T20:27:43.964Z,84.60
2019-03-08T20:30:43.636Z,84.40
2019-03-08T20:33:30.508Z,84.10
2019-03-08T20:36:36.985Z,83.90
2019-03-08T20:39:38.096Z,83.70
2019-03-08T20:43:06.263Z,83.50
2019-03-08T20:46:12.581Z,83.50
2019-03-08T20:48:59.440Z,83.50
2019-03-08T20:51:46.284Z,83.70
2019-03-08T20:54:33.117Z,83.90
2019-03-08T20:57:19.948Z,84.00
2019-03-08T21:00:07.351Z,84.00
2019-03-08T21:02:54.197Z,84.10
2019-03-08T21:05:41.040Z,84.30
2019-03-08T21:08:49.688Z,84.00
2019-03-08T21:11:36.520Z,84.50
2019-03-08T21:14:23.468Z,84.50
2019-03-08T21:17:10.303Z,84.50
2019-03-08T21:19:57.242Z,84.60
2019-03-08T21:22:44.105Z,84.40
2019-03-08T21:25:52.828Z,84.10
2019-03-08T21:28:40.515Z,83.80
2019-03-08T21:31:27.374Z,83.60
2019-03-08T21:34:14.259Z,83.30
2019-03-08T21:37:01.103Z,83.00
2019-03-08T21:39:47.982Z,82.60
2019-03-08T21:42:56.510Z,82.50
2019-03-08T21:51:17.078Z,80.30
2019-03-08T21:54:03.910Z,81.20
2019-03-08T21:56:50.676Z,81.20
2019-03-08T21:59:59.326Z,81.20
2019-03-08T22:02:46.069Z,81.00
2019-03-08T22:09:08.394Z,81.00
2019-03-08T22:11:48.950Z,80.70
2019-03-08T22:14:28.876Z,80.10
2019-03-08T22:17:08.916Z,79.90
2019-03-08T22:19:49.240Z,79.70
2019-03-08T22:22:29.257Z,79.50
2019-03-08T22:24:56.661Z,79.50
2019-03-08T22:27:43.499Z,79.30
2019-03-08T22:30:30.243Z,79.20
2019-03-08T22:33:17.082Z,79.00
2019-03-08T22:36:03.924Z,78.60
2019-03-08T22:38:50.762Z,78.40
2019-03-08T22:41:37.769Z,78.30
2019-03-08T22:44:25.481Z,78.20
2019-03-08T22:47:12.400Z,78.10
2019-03-08T22:49:59.441Z,78.20
2019-03-08T22:52:46.305Z,78.00
2019-03-08T22:55:33.204Z,78.30
2019-03-08T22:58:20.045Z,78.00
2019-03-08T23:04:18.221Z,77.80
2019-03-08T23:07:04.965Z,77.70
2019-03-08T23:09:45.095Z,77.70
2019-03-08T23:12:25.109Z,77.60
2019-03-08T23:14:52.482Z,77.50
2019-03-08T23:17:39.349Z,77.40
2019-03-08T23:20:26.276Z,77.20
2019-03-08T23:23:13.262Z,77.20
2019-03-08T23:25:40.635Z,77.20
2019-03-08T23:28:47.040Z,77.30
2019-03-08T23:31:53.399Z,77.30
2019-03-08T23:34:40.340Z,77.40
2019-03-08T23:37:27.173Z,77.50
2019-03-08T23:40:14.015Z,77.50
2019-03-08T23:43:00.961Z,77.50
2019-03-08T23:45:47.865Z,77.50
2019-03-08T23:48:34.737Z,77.50
2019-03-08T23:51:21.583Z,77.60
2019-03-08T23:54:30.093Z,77.70
2019-03-08T23:57:16.928Z,77.70
